createdAt,value
2022-09-04T00:00:10.975Z,92.70
2022-09-04T00:03:47.155Z,92.90
2022-09-04T00:07:34.433Z,93.00
2022-09-04T00:11:22.893Z,93.00
2022-09-04T00:14:56.911Z,93.00
2022-09-04T00:18:35.388Z,93.00
2022-09-04T00:22:00.314Z,93.10
2022-09-04T00:25:41.100Z,93.10
2022-09-04T00:29:12.004Z,93.10
2022-09-04T00:33:04.508Z,93.20
2022-09-04T00:36:28.348Z,93.30
2022-09-04T00:40:06.146Z,93.30
2022-09-04T00:43:31.429Z,93.40
2022-09-04T00:47:15.385Z,93.50
2022-09-04T00:50:52.641Z,93.50
2022-09-04T00:54:26.822Z,93.50
2022-09-04T00:58:16.421Z,93.60
2022-09-04T01:01:39.099Z,93.70
2022-09-04T01:05:32.154Z,93.70
2022-09-04T01:09:22.325Z,93.70
2022-09-04T01:12:45.511Z,93.80
2022-09-04T01:16:20.101Z,93.90
2022-09-04T01:19:49.707Z,94.00
2022-09-04T01:23:31.034Z,94.00
2022-09-04T01:27:18.014Z,94.00
2022-09-04T01:30:54.477Z,94.10
2022-09-04T01:34:35.425Z,94.10
2022-09-04T01:38:22.345Z,94.20
2022-09-04T01:42:00.193Z,94.30
2022-09-04T01:45:43.062Z,94.30
2022-09-04T01:49:23.533Z,94.50
2022-09-04T01:52:45.687Z,94.50
2022-09-04T01:56:24.640Z,94.60
2022-09-04T02:00:15.574Z,94.70
2022-09-04T02:03:58.200Z,94.90
2022-09-04T02:07:26.320Z,94.90
2022-09-04T02:11:12.236Z,94.90
2022-09-04T02:14:51.093Z,95.00
2022-09-04T02:18:45.467Z,95.40
2022-09-04T02:22:29.390Z,95.30
2022-09-04T02:26:07.246Z,95.00
2022-09-04T02:29:44.530Z,95.10
2022-09-04T02:33:35.441Z,95.20
2022-09-04T02:37:49.684Z,95.30
2022-09-04T02:41:34.072Z,95.40
2022-09-04T02:45:07.797Z,95.40
2022-09-04T02:48:47.786Z,95.40
2022-09-04T02:52:27.654Z,95.60
2022-09-04T02:55:58.764Z,95.60
2022-09-04T02:59:38.078Z,95.60
2022-09-04T03:03:15.085Z,95.60
2022-09-04T03:06:54.654Z,95.60
2022-09-04T03:10:26.624Z,95.60
2022-09-04T03:14:26.731Z,95.70
2022-09-04T03:18:07.793Z,96.00
2022-09-04T03:21:52.517Z,96.00
2022-09-04T03:25:45.741Z,96.00
2022-09-04T03:29:35.009Z,96.10
2022-09-04T03:33:21.574Z,96.20
2022-09-04T03:37:04.279Z,96.20
2022-09-04T03:40:50.079Z,96.10
2022-09-04T03:44:15.237Z,96.20
2022-09-04T03:47:46.650Z,96.30
2022-09-04T03:51:39.842Z,96.30
2022-09-04T03:55:14.272Z,96.30
2022-09-04T03:58:45.150Z,96.50
2022-09-04T04:02:26.305Z,96.50
2022-09-04T04:06:07.079Z,96.60
2022-09-04T04:10:03.373Z,96.60
2022-09-04T04:13:55.160Z,96.60
2022-09-04T04:17:35.934Z,96.70
2022-09-04T04:21:22.946Z,96.60
2022-09-04T04:25:12.441Z,96.60
2022-09-04T04:28:57.043Z,96.70
2022-09-04T04:32:41.167Z,96.70
2022-09-04T04:36:35.802Z,96.90
2022-09-04T04:40:10.437Z,97.00
2022-09-04T04:43:44.613Z,97.10
2022-09-04T04:47:15.775Z,97.00
2022-09-04T04:50:59.597Z,97.00
2022-09-04T04:54:40.273Z,96.80
2022-09-04T04:58:27.210Z,96.80
2022-09-04T05:02:07.723Z,96.80
2022-09-04T05:05:55.215Z,96.80
2022-09-04T05:09:44.495Z,96.70
2022-09-04T05:13:24.813Z,96.70
2022-09-04T05:17:13.710Z,96.70
2022-09-04T05:20:49.629Z,96.90
2022-09-04T05:24:44.336Z,97.10
2022-09-04T05:28:20.461Z,97.20
2022-09-04T05:31:53.666Z,97.30
2022-09-04T05:35:31.935Z,97.10
2022-09-04T05:39:30.935Z,97.50
2022-09-04T05:43:42.349Z,97.00
2022-09-04T05:47:13.165Z,96.80
2022-09-04T05:50:57.693Z,96.80
2022-09-04T05:54:31.997Z,96.80
2022-09-04T05:58:30.727Z,96.60
2022-09-04T06:02:22.109Z,96.40
2022-09-04T06:06:13.947Z,96.90
2022-09-04T06:09:58.554Z,97.10
2022-09-04T06:13:31.014Z,97.30
2022-09-04T06:17:00.513Z,97.50
2022-09-04T06:20:57.981Z,97.20
2022-09-04T06:24:59.385Z,97.00
2022-09-04T06:28:27.039Z,96.90
2022-09-04T06:32:09.649Z,96.80
2022-09-04T06:36:05.624Z,96.60
2022-09-04T06:39:27.872Z,96.70
2022-09-04T06:43:05.684Z,96.70
2022-09-04T06:46:42.387Z,96.70
2022-09-04T06:50:26.675Z,96.70
2022-09-04T06:53:57.188Z,96.70
2022-09-04T06:57:25.106Z,96.40
2022-09-04T07:01:00.676Z,96.00
2022-09-04T07:04:44.985Z,95.80
2022-09-04T07:08:35.266Z,95.60
2022-09-04T07:12:18.796Z,95.90
2022-09-04T07:15:58.821Z,95.90
2022-09-04T07:19:57.945Z,96.10
2022-09-04T07:23:35.925Z,96.10
2022-09-04T07:27:28.169Z,96.00
2022-09-04T07:31:17.141Z,95.70
2022-09-04T07:34:42.152Z,95.80
2022-09-04T07:38:15.784Z,95.70
2022-09-04T07:41:51.780Z,95.40
2022-09-04T07:45:38.481Z,95.30
2022-09-04T07:49:10.123Z,94.80
2022-09-04T07:53:00.207Z,94.70
2022-09-04T07:56:27.341Z,94.90
2022-09-04T07:59:59.178Z,94.90
2022-09-04T08:03:54.411Z,95.10
2022-09-04T08:07:37.970Z,94.90
2022-09-04T08:11:09.101Z,95.10
2022-09-04T08:14:54.407Z,94.90
2022-09-04T08:18:38.277Z,94.90
2022-09-04T08:22:03.043Z,95.00
2022-09-04T08:25:31.614Z,94.70
2022-09-04T08:29:14.813Z,95.00
2022-09-04T08:32:43.139Z,95.00
2022-09-04T08:36:27.532Z,95.20
2022-09-04T08:40:20.770Z,95.20
2022-09-04T08:44:04.494Z,95.20
2022-09-04T08:47:38.764Z,95.40
2022-09-04T08:51:40.047Z,95.60
2022-09-04T08:55:33.194Z,95.40
2022-09-04T08:59:07.537Z,94.70
2022-09-04T09:02:44.791Z,94.50
2022-09-04T09:06:55.574Z,94.60
2022-09-04T09:10:42.977Z,93.90
2022-09-04T09:14:41.923Z,93.80
2022-09-04T09:18:23.130Z,93.50
2022-09-04T09:21:48.282Z,93.60
2022-09-04T09:25:36.141Z,93.40
2022-09-04T09:29:04.126Z,93.30
2022-09-04T09:32:56.635Z,93.10
2022-09-04T09:36:46.562Z,93.50
2022-09-04T09:40:11.511Z,93.70
2022-09-04T09:43:33.577Z,93.90
2022-09-04T09:47:20.825Z,93.80
2022-09-04T09:50:49.249Z,93.70
2022-09-04T09:54:14.686Z,93.10
2022-09-04T09:58:01.597Z,92.80
2022-09-04T10:01:48.535Z,93.00
2022-09-04T10:05:38.932Z,92.90
2022-09-04T10:09:26.072Z,93.20
2022-09-04T10:13:22.074Z,92.80
2022-09-04T10:17:08.950Z,92.60
2022-09-04T10:20:39.938Z,92.90
2022-09-04T10:24:21.899Z,93.00
2022-09-04T10:28:04.862Z,93.00
2022-09-04T10:31:27.149Z,93.00
2022-09-04T10:35:21.269Z,92.80
2022-09-04T10:39:07.838Z,92.50
2022-09-04T10:43:10.084Z,92.40
2022-09-04T10:46:43.252Z,91.60
2022-09-04T10:50:30.283Z,92.50
2022-09-04T10:53:56.557Z,92.10
2022-09-04T10:57:42.062Z,92.50
2022-09-04T11:01:06.972Z,90.90
2022-09-04T11:04:59.367Z,90.60
2022-09-04T11:09:00.564Z,90.50
2022-09-04T11:12:45.908Z,89.90
2022-09-04T11:16:10.908Z,89.00
2022-09-04T11:20:16.127Z,89.00
2022-09-04T11:24:15.398Z,88.80
2022-09-04T11:27:53.241Z,87.80
2022-09-04T11:31:59.872Z,86.20
2022-09-04T11:35:40.565Z,87.10
2022-09-04T11:39:26.135Z,85.70
2022-09-04T11:43:13.872Z,86.10
2022-09-04T11:46:49.525Z,85.30
2022-09-04T11:50:43.660Z,82.40
2022-09-04T11:54:19.456Z,83.50
2022-09-04T11:57:50.317Z,84.20
2022-09-04T12:01:31.190Z,83.10
2022-09-04T12:05:39.432Z,84.00
2022-09-04T12:09:26.207Z,83.20
2022-09-04T12:13:25.754Z,83.80
2022-09-04T12:17:03.042Z,84.60
2022-09-04T12:20:30.918Z,82.00
2022-09-04T12:23:53.146Z,81.60
2022-09-04T12:27:27.162Z,82.10
2022-09-04T12:31:20.745Z,82.60
2022-09-04T12:35:01.744Z,80.60
2022-09-04T12:38:47.166Z,81.10
2022-09-04T12:42:09.312Z,80.50
2022-09-04T12:45:53.356Z,82.10
2022-09-04T12:49:26.115Z,83.40
2022-09-04T12:53:06.261Z,84.00
2022-09-04T12:56:49.452Z,84.30
2022-09-04T13:00:16.815Z,83.90
2022-09-04T13:03:47.737Z,82.90
2022-09-04T13:07:21.026Z,83.40
2022-09-04T13:10:56.657Z,82.20
2022-09-04T13:14:47.907Z,82.30
2022-09-04T13:18:41.084Z,83.30
2022-09-04T13:22:28.157Z,82.70
2022-09-04T13:26:09.122Z,82.60
2022-09-04T13:30:03.064Z,82.00
2022-09-04T13:33:39.856Z,81.60
2022-09-04T13:37:21.297Z,82.60
2022-09-04T13:41:13.982Z,82.90
2022-09-04T13:44:50.053Z,83.40
2022-09-04T13:48:20.232Z,83.50
2022-09-04T13:51:51.656Z,83.50
2022-09-04T13:55:22.685Z,83.50
2022-09-04T13:58:49.569Z,84.20
2022-09-04T14:02:14.728Z,84.40
2022-09-04T14:05:37.796Z,83.90
2022-09-04T14:09:04.713Z,85.30
2022-09-04T14:12:55.066Z,84.00
2022-09-04T14:16:18.907Z,84.00
2022-09-04T14:19:46.922Z,84.20
2022-09-04T14:23:24.327Z,84.30
2022-09-04T14:26:59.809Z,84.20
2022-09-04T14:30:23.049Z,84.20
2022-09-04T14:34:04.845Z,85.10
2022-09-04T14:37:50.158Z,84.40
2022-09-04T14:41:32.838Z,84.00
2022-09-04T14:45:36.976Z,84.90
2022-09-04T14:49:06.812Z,83.90
2022-09-04T14:52:37.859Z,84.10
2022-09-04T14:56:08.009Z,84.10
2022-09-04T14:59:41.331Z,84.10
2022-09-04T15:03:17.270Z,84.30
2022-09-04T15:07:09.789Z,85.10
2022-09-04T15:10:50.368Z,84.50
2022-09-04T15:14:47.653Z,84.60
2022-09-04T15:18:17.946Z,83.80
2022-09-04T15:21:53.317Z,84.50
2022-09-04T15:25:18.174Z,83.90
2022-09-04T15:28:46.309Z,84.00
2022-09-04T15:32:14.037Z,84.20
2022-09-04T15:35:38.714Z,83.30
2022-09-04T15:39:04.938Z,84.30
2022-09-04T15:42:35.304Z,83.90
2022-09-04T15:46:06.841Z,84.10
2022-09-04T15:49:40.216Z,84.30
2022-09-04T15:53:30.790Z,85.30
2022-09-04T15:56:52.925Z,84.70
2022-09-04T16:00:20.492Z,84.50
2022-09-04T16:04:01.125Z,85.00
2022-09-04T16:07:39.374Z,85.00
2022-09-04T16:11:11.694Z,85.80
2022-09-04T16:14:48.450Z,86.10
2022-09-04T16:18:19.690Z,84.50
2022-09-04T16:21:53.834Z,84.80
2022-09-04T16:25:19.167Z,85.10
2022-09-04T16:28:56.162Z,85.00
2022-09-04T16:32:22.138Z,86.10
2022-09-04T16:35:45.022Z,84.80
2022-09-04T16:39:31.984Z,84.60
2022-09-04T16:43:15.357Z,84.60
2022-09-04T16:46:40.821Z,86.00
2022-09-04T16:50:23.675Z,85.00
2022-09-04T16:54:05.269Z,85.10
2022-09-04T16:57:34.165Z,84.80
2022-09-04T17:01:28.166Z,85.30
2022-09-04T17:04:59.957Z,85.50
2022-09-04T17:08:34.436Z,85.30
2022-09-04T17:12:19.606Z,85.00
2022-09-04T17:16:03.800Z,86.60
2022-09-04T17:19:27.552Z,86.30
2022-09-04T17:29:00.159Z,86.10
2022-09-04T17:29:16.211Z,87.00
2022-09-04T17:30:40.371Z,87.00
2022-09-04T17:40:36.253Z,86.20
2022-09-04T17:40:55.607Z,86.30
2022-09-04T17:42:42.132Z,85.90
2022-09-04T17:46:32.306Z,86.70
2022-09-04T17:49:56.325Z,87.40
2022-09-04T17:53:33.713Z,86.70
2022-09-04T17:57:18.437Z,85.90
2022-09-04T18:01:14.674Z,87.70
2022-09-04T18:04:47.185Z,85.90
2022-09-04T18:08:13.095Z,85.00
2022-09-04T18:12:13.258Z,85.40
2022-09-04T18:15:49.077Z,85.20
2022-09-04T18:19:38.330Z,85.50
2022-09-04T18:23:06.221Z,85.60
2022-09-04T18:26:42.645Z,85.60
2022-09-04T18:35:10.922Z,85.40
2022-09-04T18:37:25.133Z,85.70
2022-09-04T18:38:20.385Z,86.10
2022-09-04T18:44:25.811Z,86.60
2022-09-04T18:50:25.371Z,88.00
2022-09-04T18:50:29.883Z,89.10
2022-09-04T18:53:22.046Z,89.90
2022-09-04T18:56:47.911Z,90.20
2022-09-04T19:00:13.469Z,90.40
2022-09-04T19:03:57.577Z,90.60
2022-09-04T19:07:38.806Z,90.90
2022-09-04T19:11:14.398Z,91.00
2022-09-04T19:14:44.217Z,91.20
2022-09-04T19:18:45.456Z,91.40
2022-09-04T19:22:19.285Z,91.70
2022-09-04T19:25:54.778Z,92.00
2022-09-04T19:29:38.490Z,92.40
2022-09-04T19:33:16.535Z,92.70
2022-09-04T19:37:54.351Z,93.10
2022-09-04T19:46:08.793Z,93.60
2022-09-04T19:46:19.269Z,93.90
2022-09-04T19:48:25.624Z,94.40
2022-09-04T19:53:33.360Z,94.80
2022-09-04T19:56:30.127Z,95.20
2022-09-04T20:00:38.390Z,95.30
2022-09-04T20:04:02.432Z,95.40
2022-09-04T20:07:47.656Z,95.80
2022-09-04T20:11:34.592Z,96.00
2022-09-04T20:15:13.756Z,96.20
2022-09-04T20:18:50.076Z,96.50
2022-09-04T20:22:26.542Z,96.90
2022-09-04T20:26:04.986Z,97.20
2022-09-04T20:29:54.914Z,97.50
2022-09-04T20:33:26.278Z,97.80
2022-09-04T20:37:01.053Z,98.10
2022-09-04T20:40:41.354Z,97.90
2022-09-04T20:44:28.881Z,98.20
2022-09-04T20:52:52.414Z,98.50
2022-09-04T20:53:04.258Z,99.00
2022-09-04T20:55:38.932Z,98.60
2022-09-04T21:03:14.434Z,97.90
2022-09-04T21:03:34.243Z,97.40
2022-09-04T21:07:02.753Z,97.20
2022-09-04T21:10:27.796Z,97.10
2022-09-04T21:13:51.725Z,97.00
2022-09-04T21:17:49.581Z,97.10
2022-09-04T21:21:41.870Z,96.80
2022-09-04T21:25:18.392Z,96.60
2022-09-04T21:29:11.107Z,96.60
2022-09-04T21:33:27.886Z,96.50
2022-09-04T21:37:02.657Z,96.50
2022-09-04T21:40:51.500Z,96.40
2022-09-04T21:44:34.523Z,96.30
2022-09-04T21:48:18.039Z,96.20
2022-09-04T21:52:05.117Z,96.20
2022-09-04T21:58:22.988Z,96.30
2022-09-04T22:02:44.440Z,96.20
2022-09-04T22:04:23.406Z,96.10
2022-09-04T22:13:28.412Z,96.20
2022-09-04T22:13:43.728Z,96.20
2022-09-04T22:16:13.487Z,96.20
2022-09-04T22:19:35.838Z,96.20
2022-09-04T22:23:28.693Z,96.40
2022-09-04T22:27:08.684Z,96.40
2022-09-04T22:30:56.048Z,96.60
2022-09-04T22:34:30.126Z,96.70
2022-09-04T22:38:17.581Z,96.70
2022-09-04T22:42:20.532Z,96.80
2022-09-04T22:46:08.618Z,96.80
2022-09-04T22:50:06.365Z,96.90
2022-09-04T22:53:34.660Z,96.90
2022-09-04T22:57:06.463Z,96.90
2022-09-04T23:00:44.218Z,97.00
2022-09-04T23:04:21.562Z,97.20
2022-09-04T23:13:01.358Z,97.30
2022-09-04T23:13:52.005Z,97.30
2022-09-04T23:16:17.947Z,97.40
2022-09-04T23:23:26.109Z,97.50
2022-09-04T23:26:58.017Z,97.40
2022-09-04T23:28:27.456Z,97.10
2022-09-04T23:32:13.242Z,97.00
2022-09-04T23:35:45.599Z,96.70
2022-09-04T23:39:44.967Z,96.60
2022-09-04T23:43:28.740Z,96.70
2022-09-04T23:47:00.163Z,96.70
2022-09-04T23:50:41.355Z,96.90
2022-09-04T23:54:12.720Z,97.70
2022-09-04T23:58:20.906Z,98.60
